Time;durP1;ratioP1;P1;durP2;ratioP2;P2;SDS_P1;SDS_P2;PMS_P1;PMS_P2;Temp;Humidity;BMP_temperature;BMP_pressure;BME280_temperature;BME280_humidity;BME280_pressure;Samples;Min_cycle;Max_cycle;Signal;HPM_P1;HPM_P2
2020/10/18 00:00:39;;;;;;;29.15;18.85;;;;;;;6.57;100;95532.4;;;;
2020/10/18 00:01:40;;;;;;;29.15;18.85;;;;;;;6.57;100;95532.4;;;;
2020/10/18 00:02:40;;;;;;;29.15;18.85;;;;;;;6.57;100;95532.4;;;;
2020/10/18 00:03:41;;;;;;;29.15;18.85;;;;;;;6.57;100;95532.4;;;;
2020/10/18 00:04:41;;;;;;;29.15;18.85;;;;;;;6.57;100;95532.4;;;;
2020/10/18 00:05:42;;;;;;;29.15;18.85;;;;;;;6.57;100;95532.4;;;;
2020/10/18 00:06:42;;;;;;;29.15;18.85;;;;;;;6.57;100;95532.4;;;;
2020/10/18 00:07:43;;;;;;;29.15;18.85;;;;;;;6.57;100;95532.4;;;;
2020/10/18 00:08:43;;;;;;;29.65;19.4;;;;;;;6.57;100;95535;;;;
2020/10/18 00:09:45;;;;;;;29.65;19.4;;;;;;;6.57;100;95535;;;;
2020/10/18 00:10:46;;;;;;;29.65;19.4;;;;;;;6.57;100;95535;;;;
2020/10/18 00:11:47;;;;;;;29.65;19.4;;;;;;;6.57;100;95535;;;;
2020/10/18 00:12:48;;;;;;;29.65;19.4;;;;;;;6.57;100;95535;;;;
2020/10/18 00:13:48;;;;;;;29.65;19.4;;;;;;;6.57;100;95535;;;;
2020/10/18 00:14:49;;;;;;;29.65;19.4;;;;;;;6.57;100;95535;;;;
2020/10/18 00:15:49;;;;;;;29.65;19.4;;;;;;;6.57;100;95535;;;;
2020/10/18 00:16:50;;;;;;;29.65;19.4;;;;;;;6.57;100;95535;;;;
2020/10/18 00:17:51;;;;;;;29.65;19.4;;;;;;;6.57;100;95535;;;;
2020/10/18 00:18:51;;;;;;;29.05;19.25;;;;;;;6.56;100;95533.45;;;;
2020/10/18 00:19:52;;;;;;;29.05;19.25;;;;;;;6.56;100;95533.45;;;;
2020/10/18 00:20:52;;;;;;;29.05;19.25;;;;;;;6.56;100;95533.45;;;;
2020/10/18 00:21:53;;;;;;;29.05;19.25;;;;;;;6.56;100;95533.45;;;;
2020/10/18 00:22:53;;;;;;;29.05;19.25;;;;;;;6.56;100;95533.45;;;;
2020/10/18 00:23:54;;;;;;;29.05;19.25;;;;;;;6.56;100;95533.45;;;;
2020/10/18 00:24:54;;;;;;;29.05;19.25;;;;;;;6.56;100;95533.45;;;;
2020/10/18 00:25:55;;;;;;;29.05;19.25;;;;;;;6.56;100;95533.45;;;;
2020/10/18 00:26:55;;;;;;;29.05;19.25;;;;;;;6.56;100;95533.45;;;;
2020/10/18 00:27:56;;;;;;;29.05;19.25;;;;;;;6.56;100;95533.45;;;;
2020/10/18 00:28:56;;;;;;;29.05;19.25;;;;;;;6.56;100;95533.45;;;;
2020/10/18 00:29:57;;;;;;;29.65;19.9;;;;;;;6.54;100;95530.98;;;;
2020/10/18 00:30:57;;;;;;;29.65;19.9;;;;;;;6.54;100;95530.98;;;;
2020/10/18 00:31:58;;;;;;;29.65;19.9;;;;;;;6.54;100;95530.98;;;;
2020/10/18 00:32:58;;;;;;;29.65;19.9;;;;;;;6.54;100;95530.98;;;;
2020/10/18 00:33:59;;;;;;;29.65;19.9;;;;;;;6.54;100;95530.98;;;;
2020/10/18 00:34:59;;;;;;;29.65;19.9;;;;;;;6.54;100;95530.98;;;;
2020/10/18 00:36:00;;;;;;;29.65;19.9;;;;;;;6.54;100;95530.98;;;;
2020/10/18 00:37:00;;;;;;;29.65;19.9;;;;;;;6.54;100;95530.98;;;;
2020/10/18 00:38:01;;;;;;;29.65;19.9;;;;;;;6.54;100;95530.98;;;;
2020/10/18 00:39:02;;;;;;;29.65;19.9;;;;;;;6.54;100;95530.98;;;;
2020/10/18 00:40:03;;;;;;;31.6;20.45;;;;;;;6.54;100;95537.69;;;;
2020/10/18 00:41:07;;;;;;;31.6;20.45;;;;;;;6.54;100;95537.69;;;;
2020/10/18 00:42:07;;;;;;;31.6;20.45;;;;;;;6.54;100;95537.69;;;;
2020/10/18 00:43:08;;;;;;;31.6;20.45;;;;;;;6.54;100;95537.69;;;;
2020/10/18 00:44:10;;;;;;;31.6;20.45;;;;;;;6.54;100;95537.69;;;;
2020/10/18 00:45:19;;;;;;;31.6;20.45;;;;;;;6.54;100;95537.69;;;;
2020/10/18 00:46:20;;;;;;;31.6;20.45;;;;;;;6.54;100;95537.69;;;;
2020/10/18 00:47:26;;;;;;;31.6;20.45;;;;;;;6.54;100;95537.69;;;;
2020/10/18 00:48:27;;;;;;;31.6;20.45;;;;;;;6.54;100;95537.69;;;;
2020/10/18 00:49:27;;;;;;;31.6;20.45;;;;;;;6.54;100;95537.69;;;;
2020/10/18 00:50:31;;;;;;;31.45;20.75;;;;;;;6.63;100;95548.95;;;;
2020/10/18 00:51:32;;;;;;;31.45;20.75;;;;;;;6.63;100;95548.95;;;;
2020/10/18 00:52:33;;;;;;;31.45;20.75;;;;;;;6.63;100;95548.95;;;;
2020/10/18 00:53:33;;;;;;;31.45;20.75;;;;;;;6.63;100;95548.95;;;;
2020/10/18 00:54:34;;;;;;;31.45;20.75;;;;;;;6.63;100;95548.95;;;;
2020/10/18 00:55:34;;;;;;;31.45;20.75;;;;;;;6.63;100;95548.95;;;;
2020/10/18 00:56:35;;;;;;;31.45;20.75;;;;;;;6.63;100;95548.95;;;;
2020/10/18 00:57:40;;;;;;;31.45;20.75;;;;;;;6.63;100;95548.95;;;;
2020/10/18 00:58:44;;;;;;;31.45;20.75;;;;;;;6.63;100;95548.95;;;;
2020/10/18 00:59:53;;;;;;;31.45;20.75;;;;;;;6.63;100;95548.95;;;;
2020/10/18 01:01:06;;;;;;;33.95;19.7;;;;;;;6.69;100;95546.89;;;;
2020/10/18 01:02:10;;;;;;;33.95;19.7;;;;;;;6.69;100;95546.89;;;;
2020/10/18 01:03:14;;;;;;;33.95;19.7;;;;;;;6.69;100;95546.89;;;;
2020/10/18 01:04:16;;;;;;;33.95;19.7;;;;;;;6.69;100;95546.89;;;;
2020/10/18 01:05:17;;;;;;;33.95;19.7;;;;;;;6.69;100;95546.89;;;;
2020/10/18 01:06:30;;;;;;;33.95;19.7;;;;;;;6.69;100;95546.89;;;;
2020/10/18 01:07:31;;;;;;;33.95;19.7;;;;;;;6.69;100;95546.89;;;;
2020/10/18 01:08:35;;;;;;;33.95;19.7;;;;;;;6.69;100;95546.89;;;;
2020/10/18 01:09:35;;;;;;;33.95;19.7;;;;;;;6.69;100;95546.89;;;;
2020/10/18 01:10:36;;;;;;;33.95;19.7;;;;;;;6.69;100;95546.89;;;;
2020/10/18 01:11:36;;;;;;;33.95;19.7;;;;;;;6.69;100;95546.89;;;;
2020/10/18 01:12:37;;;;;;;31.75;19.95;;;;;;;6.62;100;95547.81;;;;
2020/10/18 01:13:37;;;;;;;31.75;19.95;;;;;;;6.62;100;95547.81;;;;
2020/10/18 01:14:42;;;;;;;31.75;19.95;;;;;;;6.62;100;95547.81;;;;
2020/10/18 01:15:43;;;;;;;31.75;19.95;;;;;;;6.62;100;95547.81;;;;
2020/10/18 01:16:43;;;;;;;31.75;19.95;;;;;;;6.62;100;95547.81;;;;
2020/10/18 01:17:44;;;;;;;31.75;19.95;;;;;;;6.62;100;95547.81;;;;
2020/10/18 01:18:45;;;;;;;31.75;19.95;;;;;;;6.62;100;95547.81;;;;
2020/10/18 01:19:47;;;;;;;31.75;19.95;;;;;;;6.62;100;95547.81;;;;
2020/10/18 01:20:50;;;;;;;31.75;19.95;;;;;;;6.62;100;95547.81;;;;
2020/10/18 01:21:51;;;;;;;31.75;19.95;;;;;;;6.62;100;95547.81;;;;
2020/10/18 01:22:54;;;;;;;32.95;20.45;;;;;;;6.65;100;95538.42;;;;
2020/10/18 01:23:56;;;;;;;32.95;20.45;;;;;;;6.65;100;95538.42;;;;
2020/10/18 01:24:56;;;;;;;32.95;20.45;;;;;;;6.65;100;95538.42;;;;
2020/10/18 01:25:58;;;;;;;32.95;20.45;;;;;;;6.65;100;95538.42;;;;
2020/10/18 01:26:59;;;;;;;32.95;20.45;;;;;;;6.65;100;95538.42;;;;
2020/10/18 01:27:59;;;;;;;32.95;20.45;;;;;;;6.65;100;95538.42;;;;
2020/10/18 01:29:00;;;;;;;32.95;20.45;;;;;;;6.65;100;95538.42;;;;
2020/10/18 01:30:03;;;;;;;32.95;20.45;;;;;;;6.65;100;95538.42;;;;
2020/10/18 01:31:04;;;;;;;32.95;20.45;;;;;;;6.65;100;95538.42;;;;
2020/10/18 01:32:06;;;;;;;32.95;20.45;;;;;;;6.65;100;95538.42;;;;
2020/10/18 01:33:06;;;;;;;35.6;21.5;;;;;;;6.7;100;95539.97;;;;
2020/10/18 01:34:07;;;;;;;35.6;21.5;;;;;;;6.7;100;95539.97;;;;
2020/10/18 01:35:08;;;;;;;35.6;21.5;;;;;;;6.7;100;95539.97;;;;
2020/10/18 01:36:08;;;;;;;35.6;21.5;;;;;;;6.7;100;95539.97;;;;
2020/10/18 01:37:09;;;;;;;35.6;21.5;;;;;;;6.7;100;95539.97;;;;
2020/10/18 01:38:09;;;;;;;35.6;21.5;;;;;;;6.7;100;95539.97;;;;
2020/10/18 01:39:10;;;;;;;35.6;21.5;;;;;;;6.7;100;95539.97;;;;
2020/10/18 01:40:11;;;;;;;35.6;21.5;;;;;;;6.7;100;95539.97;;;;
2020/10/18 01:41:12;;;;;;;35.6;21.5;;;;;;;6.7;100;95539.97;;;;
2020/10/18 01:42:12;;;;;;;35.6;21.5;;;;;;;6.7;100;95539.97;;;;
2020/10/18 01:43:13;;;;;;;35.6;21.5;;;;;;;6.7;100;95539.97;;;;
2020/10/18 01:44:13;;;;;;;35.39999;21;;;;;;;6.67;100;95541.74;;;;
2020/10/18 01:45:14;;;;;;;35.39999;21;;;;;;;6.67;100;95541.74;;;;
2020/10/18 01:46:15;;;;;;;35.39999;21;;;;;;;6.67;100;95541.74;;;;
2020/10/18 01:47:15;;;;;;;35.39999;21;;;;;;;6.67;100;95541.74;;;;
2020/10/18 01:48:20;;;;;;;35.39999;21;;;;;;;6.67;100;95541.74;;;;
2020/10/18 01:49:25;;;;;;;35.39999;21;;;;;;;6.67;100;95541.74;;;;
2020/10/18 01:50:25;;;;;;;35.39999;21;;;;;;;6.67;100;95541.74;;;;
2020/10/18 01:51:26;;;;;;;35.39999;21;;;;;;;6.67;100;95541.74;;;;
2020/10/18 01:52:26;;;;;;;35.39999;21;;;;;;;6.67;100;95541.74;;;;
2020/10/18 01:53:27;;;;;;;35.39999;21;;;;;;;6.67;100;95541.74;;;;
2020/10/18 01:54:27;;;;;;;35.3;20.75;;;;;;;6.64;100;95535.96;;;;
2020/10/18 01:55:28;;;;;;;35.3;20.75;;;;;;;6.64;100;95535.96;;;;
2020/10/18 01:56:29;;;;;;;35.3;20.75;;;;;;;6.64;100;95535.96;;;;
2020/10/18 01:57:30;;;;;;;35.3;20.75;;;;;;;6.64;100;95535.96;;;;
2020/10/18 01:58:30;;;;;;;35.3;20.75;;;;;;;6.64;100;95535.96;;;;
2020/10/18 01:59:31;;;;;;;35.3;20.75;;;;;;;6.64;100;95535.96;;;;
2020/10/18 02:00:31;;;;;;;35.3;20.75;;;;;;;6.64;100;95535.96;;;;
2020/10/18 02:01:32;;;;;;;35.3;20.75;;;;;;;6.64;100;95535.96;;;;
2020/10/18 02:02:33;;;;;;;35.3;20.75;;;;;;;6.64;100;95535.96;;;;
2020/10/18 02:03:34;;;;;;;35.3;20.75;;;;;;;6.64;100;95535.96;;;;
2020/10/18 02:04:35;;;;;;;35.3;20.75;;;;;;;6.64;100;95535.96;;;;
2020/10/18 02:05:36;;;;;;;35.05;20.7;;;;;;;6.59;100;95539.65;;;;
2020/10/18 02:06:36;;;;;;;35.05;20.7;;;;;;;6.59;100;95539.65;;;;
2020/10/18 02:07:36;;;;;;;35.05;20.7;;;;;;;6.59;100;95539.65;;;;
2020/10/18 02:08:37;;;;;;;35.05;20.7;;;;;;;6.59;100;95539.65;;;;
2020/10/18 02:09:37;;;;;;;35.05;20.7;;;;;;;6.59;100;95539.65;;;;
2020/10/18 02:10:38;;;;;;;35.05;20.7;;;;;;;6.59;100;95539.65;;;;
2020/10/18 02:11:39;;;;;;;35.05;20.7;;;;;;;6.59;100;95539.65;;;;
2020/10/18 02:12:39;;;;;;;35.05;20.7;;;;;;;6.59;100;95539.65;;;;
2020/10/18 02:13:40;;;;;;;35.05;20.7;;;;;;;6.59;100;95539.65;;;;
2020/10/18 02:14:40;;;;;;;35.05;20.7;;;;;;;6.59;100;95539.65;;;;
2020/10/18 02:15:41;;;;;;;35.05;20.7;;;;;;;6.59;100;95539.65;;;;
2020/10/18 02:16:42;;;;;;;36.15001;20.95;;;;;;;6.54;100;95538.61;;;;
2020/10/18 02:17:42;;;;;;;36.15001;20.95;;;;;;;6.54;100;95538.61;;;;
2020/10/18 02:18:43;;;;;;;36.15001;20.95;;;;;;;6.54;100;95538.61;;;;
2020/10/18 02:19:44;;;;;;;36.15001;20.95;;;;;;;6.54;100;95538.61;;;;
2020/10/18 02:20:45;;;;;;;36.15001;20.95;;;;;;;6.54;100;95538.61;;;;
2020/10/18 02:21:45;;;;;;;36.15001;20.95;;;;;;;6.54;100;95538.61;;;;
2020/10/18 02:22:46;;;;;;;36.15001;20.95;;;;;;;6.54;100;95538.61;;;;
2020/10/18 02:23:46;;;;;;;36.15001;20.95;;;;;;;6.54;100;95538.61;;;;
2020/10/18 02:24:47;;;;;;;36.15001;20.95;;;;;;;6.54;100;95538.61;;;;
2020/10/18 02:25:48;;;;;;;36.15001;20.95;;;;;;;6.54;100;95538.61;;;;
2020/10/18 02:26:48;;;;;;;33.25;20.55;;;;;;;6.57;100;95556.56;;;;
2020/10/18 02:27:49;;;;;;;33.25;20.55;;;;;;;6.57;100;95556.56;;;;
2020/10/18 02:28:49;;;;;;;33.25;20.55;;;;;;;6.57;100;95556.56;;;;
2020/10/18 02:29:50;;;;;;;33.25;20.55;;;;;;;6.57;100;95556.56;;;;
2020/10/18 02:30:51;;;;;;;33.25;20.55;;;;;;;6.57;100;95556.56;;;;
2020/10/18 02:31:51;;;;;;;33.25;20.55;;;;;;;6.57;100;95556.56;;;;
2020/10/18 02:32:52;;;;;;;33.25;20.55;;;;;;;6.57;100;95556.56;;;;
2020/10/18 02:33:53;;;;;;;33.25;20.55;;;;;;;6.57;100;95556.56;;;;
2020/10/18 02:34:53;;;;;;;33.25;20.55;;;;;;;6.57;100;95556.56;;;;
2020/10/18 02:35:54;;;;;;;33.25;20.55;;;;;;;6.57;100;95556.56;;;;
2020/10/18 02:36:54;;;;;;;33.25;20.55;;;;;;;6.57;100;95556.56;;;;
2020/10/18 02:37:55;;;;;;;36.6;21.4;;;;;;;6.58;100;95558.1;;;;
2020/10/18 02:38:55;;;;;;;36.6;21.4;;;;;;;6.58;100;95558.1;;;;
2020/10/18 02:39:56;;;;;;;36.6;21.4;;;;;;;6.58;100;95558.1;;;;
2020/10/18 02:40:56;;;;;;;36.6;21.4;;;;;;;6.58;100;95558.1;;;;
2020/10/18 02:41:57;;;;;;;36.6;21.4;;;;;;;6.58;100;95558.1;;;;
2020/10/18 02:42:57;;;;;;;36.6;21.4;;;;;;;6.58;100;95558.1;;;;
2020/10/18 02:43:58;;;;;;;36.6;21.4;;;;;;;6.58;100;95558.1;;;;
2020/10/18 02:44:58;;;;;;;36.6;21.4;;;;;;;6.58;100;95558.1;;;;
2020/10/18 02:45:59;;;;;;;36.6;21.4;;;;;;;6.58;100;95558.1;;;;
2020/10/18 02:47:02;;;;;;;36.6;21.4;;;;;;;6.58;100;95558.1;;;;
2020/10/18 02:48:02;;;;;;;37.1;20.9;;;;;;;6.58;100;95561.74;;;;
2020/10/18 02:49:03;;;;;;;37.1;20.9;;;;;;;6.58;100;95561.74;;;;
2020/10/18 02:50:04;;;;;;;37.1;20.9;;;;;;;6.58;100;95561.74;;;;
2020/10/18 02:51:05;;;;;;;37.1;20.9;;;;;;;6.58;100;95561.74;;;;
2020/10/18 02:52:07;;;;;;;37.1;20.9;;;;;;;6.58;100;95561.74;;;;
2020/10/18 02:53:07;;;;;;;37.1;20.9;;;;;;;6.58;100;95561.74;;;;
2020/10/18 02:54:08;;;;;;;37.1;20.9;;;;;;;6.58;100;95561.74;;;;
2020/10/18 02:55:08;;;;;;;37.1;20.9;;;;;;;6.58;100;95561.74;;;;
2020/10/18 02:56:09;;;;;;;37.1;20.9;;;;;;;6.58;100;95561.74;;;;
2020/10/18 02:57:11;;;;;;;37.1;20.9;;;;;;;6.58;100;95561.74;;;;
2020/10/18 02:58:11;;;;;;;37.1;20.9;;;;;;;6.58;100;95561.74;;;;
2020/10/18 02:59:12;;;;;;;32.75;19.3;;;;;;;6.57;100;95568.53;;;;
2020/10/18 03:00:12;;;;;;;32.75;19.3;;;;;;;6.57;100;95568.53;;;;
2020/10/18 03:01:13;;;;;;;32.75;19.3;;;;;;;6.57;100;95568.53;;;;
2020/10/18 03:02:19;;;;;;;32.75;19.3;;;;;;;6.57;100;95568.53;;;;
2020/10/18 03:03:20;;;;;;;32.75;19.3;;;;;;;6.57;100;95568.53;;;;
2020/10/18 03:04:22;;;;;;;32.75;19.3;;;;;;;6.57;100;95568.53;;;;
2020/10/18 03:05:22;;;;;;;32.75;19.3;;;;;;;6.57;100;95568.53;;;;
2020/10/18 03:06:23;;;;;;;32.75;19.3;;;;;;;6.57;100;95568.53;;;;
2020/10/18 03:07:23;;;;;;;32.75;19.3;;;;;;;6.57;100;95568.53;;;;
2020/10/18 03:08:24;;;;;;;32.75;19.3;;;;;;;6.57;100;95568.53;;;;
2020/10/18 03:09:25;;;;;;;36.05;21.3;;;;;;;6.56;100;95565.55;;;;
2020/10/18 03:10:25;;;;;;;36.05;21.3;;;;;;;6.56;100;95565.55;;;;
2020/10/18 03:11:26;;;;;;;36.05;21.3;;;;;;;6.56;100;95565.55;;;;
2020/10/18 03:12:27;;;;;;;36.05;21.3;;;;;;;6.56;100;95565.55;;;;
2020/10/18 03:13:27;;;;;;;36.05;21.3;;;;;;;6.56;100;95565.55;;;;
2020/10/18 03:14:28;;;;;;;36.05;21.3;;;;;;;6.56;100;95565.55;;;;
2020/10/18 03:15:29;;;;;;;36.05;21.3;;;;;;;6.56;100;95565.55;;;;
2020/10/18 03:16:30;;;;;;;36.05;21.3;;;;;;;6.56;100;95565.55;;;;
2020/10/18 03:17:32;;;;;;;36.05;21.3;;;;;;;6.56;100;95565.55;;;;
2020/10/18 03:18:33;;;;;;;36.05;21.3;;;;;;;6.56;100;95565.55;;;;
2020/10/18 03:19:34;;;;;;;36.05;21.3;;;;;;;6.56;100;95565.55;;;;
2020/10/18 03:20:34;;;;;;;37.2;21.35;;;;;;;6.58;100;95568.03;;;;
2020/10/18 03:21:35;;;;;;;37.2;21.35;;;;;;;6.58;100;95568.03;;;;
2020/10/18 03:22:36;;;;;;;37.2;21.35;;;;;;;6.58;100;95568.03;;;;
2020/10/18 03:23:36;;;;;;;37.2;21.35;;;;;;;6.58;100;95568.03;;;;
2020/10/18 03:24:37;;;;;;;37.2;21.35;;;;;;;6.58;100;95568.03;;;;
2020/10/18 03:25:37;;;;;;;37.2;21.35;;;;;;;6.58;100;95568.03;;;;
2020/10/18 03:26:38;;;;;;;37.2;21.35;;;;;;;6.58;100;95568.03;;;;
2020/10/18 03:27:38;;;;;;;37.2;21.35;;;;;;;6.58;100;95568.03;;;;
2020/10/18 03:28:39;;;;;;;37.2;21.35;;;;;;;6.58;100;95568.03;;;;
2020/10/18 03:29:39;;;;;;;37.2;21.35;;;;;;;6.58;100;95568.03;;;;
2020/10/18 03:30:40;;;;;;;36.25;21.5;;;;;;;6.58;100;95568.44;;;;
2020/10/18 03:31:41;;;;;;;36.25;21.5;;;;;;;6.58;100;95568.44;;;;
2020/10/18 03:32:41;;;;;;;36.25;21.5;;;;;;;6.58;100;95568.44;;;;
2020/10/18 03:33:42;;;;;;;36.25;21.5;;;;;;;6.58;100;95568.44;;;;
2020/10/18 03:34:42;;;;;;;36.25;21.5;;;;;;;6.58;100;95568.44;;;;
2020/10/18 03:35:43;;;;;;;36.25;21.5;;;;;;;6.58;100;95568.44;;;;
2020/10/18 03:36:43;;;;;;;36.25;21.5;;;;;;;6.58;100;95568.44;;;;
2020/10/18 03:37:44;;;;;;;36.25;21.5;;;;;;;6.58;100;95568.44;;;;
2020/10/18 03:38:44;;;;;;;36.25;21.5;;;;;;;6.58;100;95568.44;;;;
2020/10/18 03:39:45;;;;;;;36.25;21.5;;;;;;;6.58;100;95568.44;;;;
2020/10/18 03:40:45;;;;;;;36.25;21.5;;;;;;;6.58;100;95568.44;;;;
2020/10/18 03:41:46;;;;;;;38.65;21.7;;;;;;;6.54;100;95569.87;;;;
2020/10/18 03:42:52;;;;;;;38.65;21.7;;;;;;;6.54;100;95569.87;;;;
2020/10/18 03:44:03;;;;;;;38.65;21.7;;;;;;;6.54;100;95569.87;;;;
2020/10/18 03:45:05;;;;;;;38.65;21.7;;;;;;;6.54;100;95569.87;;;;
2020/10/18 03:46:06;;;;;;;38.65;21.7;;;;;;;6.54;100;95569.87;;;;
2020/10/18 03:47:18;;;;;;;38.65;21.7;;;;;;;6.54;100;95569.87;;;;
2020/10/18 03:48:27;;;;;;;38.65;21.7;;;;;;;6.54;100;95569.87;;;;
2020/10/18 03:49:34;;;;;;;38.65;21.7;;;;;;;6.54;100;95569.87;;;;
2020/10/18 03:50:41;;;;;;;38.65;21.7;;;;;;;6.54;100;95569.87;;;;
2020/10/18 03:51:42;;;;;;;38.65;21.7;;;;;;;6.54;100;95569.87;;;;
2020/10/18 03:52:48;;;;;;;37.4;22.15;;;;;;;6.51;100;95570.68;;;;
2020/10/18 03:53:52;;;;;;;37.4;22.15;;;;;;;6.51;100;95570.68;;;;
2020/10/18 03:55:18;;;;;;;37.4;22.15;;;;;;;6.51;100;95570.68;;;;
2020/10/18 03:56:39;;;;;;;37.4;22.15;;;;;;;6.51;100;95570.68;;;;
2020/10/18 03:57:52;;;;;;;37.4;22.15;;;;;;;6.51;100;95570.68;;;;
2020/10/18 03:59:07;;;;;;;37.4;22.15;;;;;;;6.51;100;95570.68;;;;
2020/10/18 04:00:16;;;;;;;37.4;22.15;;;;;;;6.51;100;95570.68;;;;
2020/10/18 04:01:22;;;;;;;37.4;22.15;;;;;;;6.51;100;95570.68;;;;
2020/10/18 04:02:25;;;;;;;40.10001;21.7;;;;;;;6.55;100;95574.61;;;;
2020/10/18 04:03:41;;;;;;;40.10001;21.7;;;;;;;6.55;100;95574.61;;;;
2020/10/18 04:04:53;;;;;;;40.10001;21.7;;;;;;;6.55;100;95574.61;;;;
2020/10/18 04:06:03;;;;;;;40.10001;21.7;;;;;;;6.55;100;95574.61;;;;
2020/10/18 04:07:07;;;;;;;40.10001;21.7;;;;;;;6.55;100;95574.61;;;;
2020/10/18 04:08:13;;;;;;;40.10001;21.7;;;;;;;6.55;100;95574.61;;;;
2020/10/18 04:09:14;;;;;;;40.10001;21.7;;;;;;;6.55;100;95574.61;;;;
2020/10/18 04:10:14;;;;;;;40.10001;21.7;;;;;;;6.55;100;95574.61;;;;
2020/10/18 04:11:15;;;;;;;40.10001;21.7;;;;;;;6.55;100;95574.61;;;;
2020/10/18 04:12:18;;;;;;;40.10001;21.7;;;;;;;6.55;100;95574.61;;;;
2020/10/18 04:13:18;;;;;;;39.74999;22.35;;;;;;;6.61;100;95582.78;;;;
2020/10/18 04:14:22;;;;;;;39.74999;22.35;;;;;;;6.61;100;95582.78;;;;
2020/10/18 04:15:26;;;;;;;39.74999;22.35;;;;;;;6.61;100;95582.78;;;;
2020/10/18 04:16:27;;;;;;;39.74999;22.35;;;;;;;6.61;100;95582.78;;;;
2020/10/18 04:17:27;;;;;;;39.74999;22.35;;;;;;;6.61;100;95582.78;;;;
2020/10/18 04:18:28;;;;;;;39.74999;22.35;;;;;;;6.61;100;95582.78;;;;
2020/10/18 04:19:29;;;;;;;39.74999;22.35;;;;;;;6.61;100;95582.78;;;;
2020/10/18 04:20:32;;;;;;;39.74999;22.35;;;;;;;6.61;100;95582.78;;;;
2020/10/18 04:21:50;;;;;;;39.74999;22.35;;;;;;;6.61;100;95582.78;;;;
2020/10/18 04:22:56;;;;;;;39.74999;22.35;;;;;;;6.61;100;95582.78;;;;
2020/10/18 04:24:16;;;;;;;41.6;22.35;;;;;;;6.58;100;95588.15;;;;
2020/10/18 04:25:20;;;;;;;41.6;22.35;;;;;;;6.58;100;95588.15;;;;
2020/10/18 04:26:28;;;;;;;41.6;22.35;;;;;;;6.58;100;95588.15;;;;
2020/10/18 04:27:28;;;;;;;41.6;22.35;;;;;;;6.58;100;95588.15;;;;
2020/10/18 04:28:29;;;;;;;41.6;22.35;;;;;;;6.58;100;95588.15;;;;
2020/10/18 04:29:29;;;;;;;41.6;22.35;;;;;;;6.58;100;95588.15;;;;
2020/10/18 04:30:30;;;;;;;41.6;22.35;;;;;;;6.58;100;95588.15;;;;
2020/10/18 04:31:34;;;;;;;41.6;22.35;;;;;;;6.58;100;95588.15;;;;
2020/10/18 04:32:44;;;;;;;41.6;22.35;;;;;;;6.58;100;95588.15;;;;
2020/10/18 04:33:44;;;;;;;41.6;22.35;;;;;;;6.58;100;95588.15;;;;
2020/10/18 04:34:45;;;;;;;39;21.3;;;;;;;6.54;100;95594.44;;;;
2020/10/18 04:35:53;;;;;;;39;21.3;;;;;;;6.54;100;95594.44;;;;
2020/10/18 04:36:56;;;;;;;39;21.3;;;;;;;6.54;100;95594.44;;;;
2020/10/18 04:38:07;;;;;;;39;21.3;;;;;;;6.54;100;95594.44;;;;
2020/10/18 04:39:10;;;;;;;39;21.3;;;;;;;6.54;100;95594.44;;;;
2020/10/18 04:40:17;;;;;;;39;21.3;;;;;;;6.54;100;95594.44;;;;
2020/10/18 04:41:22;;;;;;;39;21.3;;;;;;;6.54;100;95594.44;;;;
2020/10/18 04:42:38;;;;;;;39;21.3;;;;;;;6.54;100;95594.44;;;;
2020/10/18 04:43:45;;;;;;;39;21.3;;;;;;;6.54;100;95594.44;;;;
2020/10/18 04:44:50;;;;;;;39;21.3;;;;;;;6.54;100;95594.44;;;;
2020/10/18 04:45:50;;;;;;;40.5;21.25;;;;;;;6.52;100;95591.22;;;;
2020/10/18 04:46:53;;;;;;;40.5;21.25;;;;;;;6.52;100;95591.22;;;;
2020/10/18 04:48:04;;;;;;;40.5;21.25;;;;;;;6.52;100;95591.22;;;;
2020/10/18 04:49:21;;;;;;;40.5;21.25;;;;;;;6.52;100;95591.22;;;;
2020/10/18 04:50:35;;;;;;;40.5;21.25;;;;;;;6.52;100;95591.22;;;;
2020/10/18 04:51:35;;;;;;;40.5;21.25;;;;;;;6.52;100;95591.22;;;;
2020/10/18 04:52:37;;;;;;;40.5;21.25;;;;;;;6.52;100;95591.22;;;;
2020/10/18 04:53:53;;;;;;;40.5;21.25;;;;;;;6.52;100;95591.22;;;;
2020/10/18 04:54:57;;;;;;;40.5;21.25;;;;;;;6.52;100;95591.22;;;;
2020/10/18 04:56:02;;;;;;;34.85001;19.7;;;;;;;6.48;100;95591.22;;;;
2020/10/18 04:57:03;;;;;;;34.85001;19.7;;;;;;;6.48;100;95591.22;;;;
2020/10/18 04:58:27;;;;;;;34.85001;19.7;;;;;;;6.48;100;95591.22;;;;
2020/10/18 04:59:41;;;;;;;34.85001;19.7;;;;;;;6.48;100;95591.22;;;;
2020/10/18 05:00:45;;;;;;;34.85001;19.7;;;;;;;6.48;100;95591.22;;;;
2020/10/18 05:01:52;;;;;;;34.85001;19.7;;;;;;;6.48;100;95591.22;;;;
2020/10/18 05:03:08;;;;;;;34.85001;19.7;;;;;;;6.48;100;95591.22;;;;
2020/10/18 05:07:35;;;;;;;35.5;19.2;;;;;;;6.39;100;95595.11;;;;
2020/10/18 05:08:45;;;;;;;35.5;19.2;;;;;;;6.39;100;95595.11;;;;
2020/10/18 05:10:02;;;;;;;35.5;19.2;;;;;;;6.39;100;95595.11;;;;
2020/10/18 05:11:09;;;;;;;35.5;19.2;;;;;;;6.39;100;95595.11;;;;
2020/10/18 05:12:27;;;;;;;35.5;19.2;;;;;;;6.39;100;95595.11;;;;
2020/10/18 05:14:00;;;;;;;35.5;19.2;;;;;;;6.39;100;95595.11;;;;
2020/10/18 05:15:12;;;;;;;35.5;19.2;;;;;;;6.39;100;95595.11;;;;
2020/10/18 05:16:23;;;;;;;35.5;19.2;;;;;;;6.39;100;95595.11;;;;
2020/10/18 05:17:29;;;;;;;33.55;18.95;;;;;;;6.37;100;95598.63;;;;
2020/10/18 05:18:38;;;;;;;33.55;18.95;;;;;;;6.37;100;95598.63;;;;
2020/10/18 05:19:54;;;;;;;33.55;18.95;;;;;;;6.37;100;95598.63;;;;
2020/10/18 05:21:11;;;;;;;33.55;18.95;;;;;;;6.37;100;95598.63;;;;
2020/10/18 05:22:24;;;;;;;33.55;18.95;;;;;;;6.37;100;95598.63;;;;
2020/10/18 05:23:50;;;;;;;33.55;18.95;;;;;;;6.37;100;95598.63;;;;
2020/10/18 05:25:01;;;;;;;33.55;18.95;;;;;;;6.37;100;95598.63;;;;
2020/10/18 05:26:16;;;;;;;33.55;18.95;;;;;;;6.37;100;95598.63;;;;
2020/10/18 05:27:46;;;;;;;36.39999;19.5;;;;;;;6.33;100;95605.83;;;;
2020/10/18 05:28:56;;;;;;;36.39999;19.5;;;;;;;6.33;100;95605.83;;;;
2020/10/18 05:30:11;;;;;;;36.39999;19.5;;;;;;;6.33;100;95605.83;;;;
2020/10/18 05:31:20;;;;;;;36.39999;19.5;;;;;;;6.33;100;95605.83;;;;
2020/10/18 05:32:31;;;;;;;36.39999;19.5;;;;;;;6.33;100;95605.83;;;;
2020/10/18 05:33:34;;;;;;;36.39999;19.5;;;;;;;6.33;100;95605.83;;;;
2020/10/18 05:34:43;;;;;;;36.39999;19.5;;;;;;;6.33;100;95605.83;;;;
2020/10/18 05:35:56;;;;;;;36.39999;19.5;;;;;;;6.33;100;95605.83;;;;
2020/10/18 05:37:09;;;;;;;36.39999;19.5;;;;;;;6.33;100;95605.83;;;;
2020/10/18 05:38:24;;;;;;;34.89999;18.85;;;;;;;6.23;100;95620.53;;;;
2020/10/18 05:39:40;;;;;;;34.89999;18.85;;;;;;;6.23;100;95620.53;;;;
2020/10/18 05:41:09;;;;;;;34.89999;18.85;;;;;;;6.23;100;95620.53;;;;
2020/10/18 05:42:16;;;;;;;34.89999;18.85;;;;;;;6.23;100;95620.53;;;;
2020/10/18 05:43:24;;;;;;;34.89999;18.85;;;;;;;6.23;100;95620.53;;;;
2020/10/18 05:44:25;;;;;;;34.89999;18.85;;;;;;;6.23;100;95620.53;;;;
2020/10/18 05:45:43;;;;;;;34.89999;18.85;;;;;;;6.23;100;95620.53;;;;
2020/10/18 05:46:47;;;;;;;34.89999;18.85;;;;;;;6.23;100;95620.53;;;;
2020/10/18 05:47:56;;;;;;;34.89999;18.85;;;;;;;6.23;100;95620.53;;;;
2020/10/18 05:49:04;;;;;;;35.3;19.15;;;;;;;6.14;100;95630.61;;;;
2020/10/18 05:50:15;;;;;;;35.3;19.15;;;;;;;6.14;100;95630.61;;;;
2020/10/18 05:51:21;;;;;;;35.3;19.15;;;;;;;6.14;100;95630.61;;;;
2020/10/18 05:52:22;;;;;;;35.3;19.15;;;;;;;6.14;100;95630.61;;;;
2020/10/18 05:53:22;;;;;;;35.3;19.15;;;;;;;6.14;100;95630.61;;;;
2020/10/18 05:54:26;;;;;;;35.3;19.15;;;;;;;6.14;100;95630.61;;;;
2020/10/18 05:55:27;;;;;;;35.3;19.15;;;;;;;6.14;100;95630.61;;;;
2020/10/18 05:56:33;;;;;;;35.3;19.15;;;;;;;6.14;100;95630.61;;;;
2020/10/18 05:57:35;;;;;;;35.3;19.15;;;;;;;6.14;100;95630.61;;;;
2020/10/18 05:58:35;;;;;;;35.3;19.15;;;;;;;6.14;100;95630.61;;;;
2020/10/18 05:59:51;;;;;;;38.7;19.45;;;;;;;6.12;100;95636.77;;;;
2020/10/18 06:00:52;;;;;;;38.7;19.45;;;;;;;6.12;100;95636.77;;;;
2020/10/18 06:01:52;;;;;;;38.7;19.45;;;;;;;6.12;100;95636.77;;;;
2020/10/18 06:02:53;;;;;;;38.7;19.45;;;;;;;6.12;100;95636.77;;;;
2020/10/18 06:03:54;;;;;;;38.7;19.45;;;;;;;6.12;100;95636.77;;;;
2020/10/18 06:05:00;;;;;;;38.7;19.45;;;;;;;6.12;100;95636.77;;;;
2020/10/18 06:06:00;;;;;;;38.7;19.45;;;;;;;6.12;100;95636.77;;;;
2020/10/18 06:07:03;;;;;;;38.7;19.45;;;;;;;6.12;100;95636.77;;;;
2020/10/18 06:08:05;;;;;;;38.7;19.45;;;;;;;6.12;100;95636.77;;;;
2020/10/18 06:09:06;;;;;;;38.7;19.45;;;;;;;6.12;100;95636.77;;;;
2020/10/18 06:10:18;;;;;;;38.7;19.45;;;;;;;6.12;100;95636.77;;;;
2020/10/18 06:11:24;;;;;;;46;21.6;;;;;;;6.21;100;95656.09;;;;
2020/10/18 06:12:25;;;;;;;46;21.6;;;;;;;6.21;100;95656.09;;;;
2020/10/18 06:13:39;;;;;;;46;21.6;;;;;;;6.21;100;95656.09;;;;
2020/10/18 06:14:56;;;;;;;46;21.6;;;;;;;6.21;100;95656.09;;;;
2020/10/18 06:16:10;;;;;;;46;21.6;;;;;;;6.21;100;95656.09;;;;
2020/10/18 06:17:18;;;;;;;46;21.6;;;;;;;6.21;100;95656.09;;;;
2020/10/18 06:18:28;;;;;;;46;21.6;;;;;;;6.21;100;95656.09;;;;
2020/10/18 06:19:34;;;;;;;46;21.6;;;;;;;6.21;100;95656.09;;;;
2020/10/18 06:20:36;;;;;;;46;21.6;;;;;;;6.21;100;95656.09;;;;
2020/10/18 06:21:55;;;;;;;43.05;21;;;;;;;6.45;100;95673.44;;;;
2020/10/18 06:23:16;;;;;;;43.05;21;;;;;;;6.45;100;95673.44;;;;
2020/10/18 06:24:22;;;;;;;43.05;21;;;;;;;6.45;100;95673.44;;;;
2020/10/18 06:25:30;;;;;;;43.05;21;;;;;;;6.45;100;95673.44;;;;
2020/10/18 06:26:45;;;;;;;43.05;21;;;;;;;6.45;100;95673.44;;;;
2020/10/18 06:28:04;;;;;;;43.05;21;;;;;;;6.45;100;95673.44;;;;
2020/10/18 06:29:17;;;;;;;43.05;21;;;;;;;6.45;100;95673.44;;;;
2020/10/18 06:31:26;;;;;;;43.05;21;;;;;;;6.45;100;95673.44;;;;
2020/10/18 06:32:27;;;;;;;37.75;20.25;;;;;;;6.71;100;95688.76;;;;